Time;durP1;ratioP1;P1;durP2;ratioP2;P2;SDS_P1;SDS_P2;PMS_P1;PMS_P2;Temp;Humidity;BMP_temperature;BMP_pressure;BME280_temperature;BME280_humidity;BME280_pressure;Samples;Min_cycle;Max_cycle;Signal;HPM_P1;HPM_P2
2022/07/23 00:01:08;;;;;;;9.65;3.90;;;;;;;;;;4970274;28;20061;-71
2022/07/23 00:03:39;;;;;;;10.07;3.47;;;;;;;;;;4969919;28;20058;-72
2022/07/23 00:06:10;;;;;;;8.90;3.92;;;;;;;;;;4930942;29;20055;-73
2022/07/23 00:08:41;;;;;;;8.13;4.00;;;;;;;;;;4931167;29;20055;-73
2022/07/23 00:11:11;;;;;;;9.52;3.83;;;;;;;;;;4931683;29;20074;-74
2022/07/23 00:13:41;;;;;;;10.45;3.53;;;;;;;;;;4952305;28;20518;-73
2022/07/23 00:16:13;;;;;;;12.30;4.80;;;;;;;;;;4969787;28;20439;-72
2022/07/23 00:18:45;;;;;;;12.23;4.40;;;;;;;;;;4969650;28;20062;-73
2022/07/23 00:21:15;;;;;;;11.45;3.72;;;;;;;;;;4969682;28;20055;-73
2022/07/23 00:23:46;;;;;;;9.10;4.32;;;;;;;;;;4950249;28;20060;-73
2022/07/23 00:26:16;;;;;;;12.35;4.38;;;;;;;;;;4950607;29;20051;-72
2022/07/23 00:28:47;;;;;;;9.35;3.95;;;;;;;;;;4950359;29;20066;-72
2022/07/23 00:31:19;;;;;;;8.93;4.50;;;;;;;;;;4950040;29;20051;-72
2022/07/23 00:33:49;;;;;;;11.07;4.50;;;;;;;;;;4919009;28;20065;-72
2022/07/23 00:36:24;;;;;;;9.55;4.57;;;;;;;;;;4988665;28;20066;-73
2022/07/23 00:38:57;;;;;;;9.70;4.50;;;;;;;;;;4949901;29;20063;-72
2022/07/23 00:41:30;;;;;;;10.73;4.57;;;;;;;;;;4927107;29;20059;-72
2022/07/23 00:44:23;;;;;;;10.13;4.47;;;;;;;;;;4961669;28;20047;-72
2022/07/23 00:46:58;;;;;;;14.88;4.70;;;;;;;;;;4940292;28;20059;-72
2022/07/23 00:49:30;;;;;;;10.50;4.85;;;;;;;;;;4930825;29;20064;-71
2022/07/23 00:52:02;;;;;;;12.10;5.30;;;;;;;;;;4930992;29;20060;-72
2022/07/23 00:54:32;;;;;;;10.95;4.63;;;;;;;;;;4949858;29;20058;-72
2022/07/23 00:57:03;;;;;;;10.07;4.75;;;;;;;;;;4949970;29;20063;-72
2022/07/23 00:59:34;;;;;;;9.15;4.35;;;;;;;;;;4968753;28;20047;-72
2022/07/23 01:02:05;;;;;;;14.52;5.05;;;;;;;;;;4954329;28;20128;-72
2022/07/23 01:04:36;;;;;;;12.63;4.60;;;;;;;;;;4930175;29;20051;-71
2022/07/23 01:07:07;;;;;;;12.18;5.40;;;;;;;;;;4930560;29;20055;-72
2022/07/23 01:09:39;;;;;;;10.50;4.97;;;;;;;;;;4888135;29;20236;-72
2022/07/23 01:12:09;;;;;;;14.25;4.95;;;;;;;;;;4892727;29;20057;-72
2022/07/23 01:14:40;;;;;;;13.20;5.03;;;;;;;;;;4892831;29;20509;-72
2022/07/23 01:17:10;;;;;;;12.80;5.32;;;;;;;;;;4872112;29;20071;-72
2022/07/23 01:19:40;;;;;;;12.10;4.60;;;;;;;;;;4911173;29;20060;-72
2022/07/23 01:22:11;;;;;;;16.30;5.90;;;;;;;;;;4901598;29;20060;-72
2022/07/23 01:24:41;;;;;;;12.93;4.80;;;;;;;;;;4882940;29;20064;-72
2022/07/23 01:27:12;;;;;;;12.38;5.22;;;;;;;;;;4874233;29;20068;-71
2022/07/23 01:29:43;;;;;;;10.15;5.20;;;;;;;;;;4893269;29;20048;-71
2022/07/23 01:32:18;;;;;;;14.27;5.07;;;;;;;;;;4906244;29;20048;-71
2022/07/23 01:34:49;;;;;;;9.55;4.65;;;;;;;;;;4877031;29;20525;-72
2022/07/23 01:37:20;;;;;;;10.02;4.85;;;;;;;;;;4867116;29;20515;-72
2022/07/23 01:39:51;;;;;;;10.73;5.28;;;;;;;;;;4858460;29;20062;-72
2022/07/23 01:42:21;;;;;;;19.40;6.03;;;;;;;;;;4878433;29;20088;-72
2022/07/23 01:44:52;;;;;;;12.32;6.25;;;;;;;;;;4895878;29;20104;-71
2022/07/23 01:47:25;;;;;;;14.23;7.00;;;;;;;;;;4874655;29;20209;-71
2022/07/23 01:49:57;;;;;;;12.80;5.32;;;;;;;;;;4858151;29;20057;-71
2022/07/23 01:52:44;;;;;;;12.65;5.28;;;;;;;;;;4894305;29;20052;-71
2022/07/23 01:55:14;;;;;;;14.10;5.40;;;;;;;;;;4895751;29;20057;-72
2022/07/23 01:57:49;;;;;;;13.75;5.40;;;;;;;;;;4946632;28;20059;-71
2022/07/23 02:00:23;;;;;;;14.48;5.30;;;;;;;;;;4932949;29;20052;-71
2022/07/23 02:02:54;;;;;;;14.10;4.90;;;;;;;;;;4952374;28;20059;-71
2022/07/23 02:05:24;;;;;;;10.85;5.47;;;;;;;;;;4952142;28;20062;-72
2022/07/23 02:07:55;;;;;;;12.48;5.13;;;;;;;;;;4933146;29;20051;-72
2022/07/23 02:10:26;;;;;;;15.68;5.85;;;;;;;;;;4901259;29;20057;-71
2022/07/23 02:12:57;;;;;;;10.73;5.32;;;;;;;;;;4908301;29;20063;-72
2022/07/23 02:15:30;;;;;;;11.93;5.40;;;;;;;;;;4929151;29;20056;-72
2022/07/23 02:18:00;;;;;;;15.02;5.65;;;;;;;;;;4901151;29;20061;-71
2022/07/23 02:20:32;;;;;;;12.07;5.47;;;;;;;;;;4895175;29;20068;-71
2022/07/23 02:23:03;;;;;;;11.43;5.53;;;;;;;;;;4900327;29;20065;-70
2022/07/23 02:25:34;;;;;;;12.98;6.57;;;;;;;;;;4932695;29;20390;-71
2022/07/23 02:28:05;;;;;;;13.48;5.72;;;;;;;;;;4951938;29;20066;-71
2022/07/23 02:30:35;;;;;;;11.73;5.03;;;;;;;;;;4935830;29;20503;-71
2022/07/23 02:33:05;;;;;;;11.95;5.40;;;;;;;;;;4901293;29;20047;-71
2022/07/23 02:35:37;;;;;;;13.40;6.55;;;;;;;;;;4953080;28;20091;-71
2022/07/23 02:38:08;;;;;;;13.32;4.82;;;;;;;;;;4965714;28;20058;-72
2022/07/23 02:40:38;;;;;;;14.10;5.18;;;;;;;;;;4990359;28;20054;-72
2022/07/23 02:43:08;;;;;;;13.80;6.30;;;;;;;;;;4990535;28;20411;-72
2022/07/23 02:45:40;;;;;;;11.50;5.32;;;;;;;;;;4990291;28;20050;-72
2022/07/23 02:48:12;;;;;;;14.23;5.20;;;;;;;;;;4970788;28;20059;-72
2022/07/23 02:50:45;;;;;;;11.85;5.35;;;;;;;;;;4982136;28;20043;-72
2022/07/23 02:53:19;;;;;;;13.32;5.10;;;;;;;;;;4882995;29;20052;-73
2022/07/23 02:55:50;;;;;;;13.77;5.63;;;;;;;;;;4911213;29;20058;-72
2022/07/23 02:58:22;;;;;;;11.40;5.03;;;;;;;;;;4913247;29;20066;-73
2022/07/23 03:00:53;;;;;;;17.25;5.95;;;;;;;;;;4912618;29;20464;-73
2022/07/23 03:03:26;;;;;;;12.80;5.22;;;;;;;;;;4913418;29;20564;-72
2022/07/23 03:05:58;;;;;;;9.25;4.85;;;;;;;;;;4890744;29;20631;-73
2022/07/23 03:08:29;;;;;;;11.65;4.93;;;;;;;;;;4913109;29;20525;-72
2022/07/23 03:11:00;;;;;;;12.48;5.80;;;;;;;;;;4939942;28;20063;-72
2022/07/23 03:13:31;;;;;;;14.80;5.35;;;;;;;;;;4932205;29;20067;-72
2022/07/23 03:16:04;;;;;;;14.32;5.15;;;;;;;;;;4932272;29;20060;-72
2022/07/23 03:18:37;;;;;;;10.80;4.97;;;;;;;;;;4951369;28;20055;-72
2022/07/23 03:21:09;;;;;;;12.77;4.68;;;;;;;;;;4938212;28;20054;-72
2022/07/23 03:23:40;;;;;;;9.63;4.72;;;;;;;;;;4956681;28;20050;-72
2022/07/23 03:26:11;;;;;;;10.07;4.43;;;;;;;;;;4912690;29;20048;-72
2022/07/23 03:28:41;;;;;;;10.95;5.25;;;;;;;;;;4917073;29;20057;-72
2022/07/23 03:31:11;;;;;;;10.52;4.68;;;;;;;;;;4916099;29;20059;-72
2022/07/23 03:33:42;;;;;;;10.65;4.15;;;;;;;;;;4893801;29;20057;-72
2022/07/23 03:36:13;;;;;;;15.02;5.68;;;;;;;;;;4874954;29;20045;-72
2022/07/23 03:38:46;;;;;;;12.05;4.60;;;;;;;;;;4893776;29;20056;-72
2022/07/23 03:41:16;;;;;;;10.57;4.47;;;;;;;;;;4878053;29;20060;-72
2022/07/23 03:43:46;;;;;;;10.68;4.50;;;;;;;;;;4893888;29;20063;-72
2022/07/23 03:46:17;;;;;;;12.10;5.15;;;;;;;;;;4893829;29;20469;-72
2022/07/23 03:48:47;;;;;;;10.80;4.53;;;;;;;;;;4893812;29;20067;-72
2022/07/23 03:51:23;;;;;;;9.68;4.18;;;;;;;;;;4912352;29;20044;-72
2022/07/23 03:53:54;;;;;;;14.30;4.68;;;;;;;;;;4911871;29;20064;-72
2022/07/23 03:56:25;;;;;;;9.48;4.13;;;;;;;;;;4912049;29;20516;-72
2022/07/23 03:58:56;;;;;;;9.38;4.15;;;;;;;;;;4902338;29;21033;-71
2022/07/23 04:01:27;;;;;;;9.88;4.38;;;;;;;;;;4893050;29;20049;-72
2022/07/23 04:03:59;;;;;;;8.85;4.03;;;;;;;;;;4884925;29;20060;-72
2022/07/23 04:06:30;;;;;;;9.50;3.95;;;;;;;;;;4908096;29;20248;-72
2022/07/23 04:09:00;;;;;;;7.38;3.50;;;;;;;;;;4922817;29;20055;-73
2022/07/23 04:11:33;;;;;;;8.77;4.07;;;;;;;;;;4901006;29;20059;-72
2022/07/23 04:14:04;;;;;;;10.40;4.05;;;;;;;;;;4864025;29;20662;-72
2022/07/23 04:16:34;;;;;;;9.55;3.55;;;;;;;;;;4815552;29;20054;-72
2022/07/23 04:19:04;;;;;;;11.40;3.80;;;;;;;;;;4855679;29;20060;-73
2022/07/23 04:21:45;;;;;;;9.30;3.85;;;;;;;;;;4892676;29;20045;-72
2022/07/23 04:24:15;;;;;;;9.15;3.88;;;;;;;;;;4858633;29;20060;-72
2022/07/23 04:26:46;;;;;;;9.68;4.60;;;;;;;;;;4874387;29;20104;-72
2022/07/23 04:29:16;;;;;;;10.15;3.45;;;;;;;;;;4874346;29;20069;-73
2022/07/23 04:31:48;;;;;;;7.65;3.38;;;;;;;;;;4852799;29;20081;-73
2022/07/23 04:34:19;;;;;;;9.15;3.58;;;;;;;;;;4811284;29;20057;-72
2022/07/23 04:36:50;;;;;;;7.70;3.40;;;;;;;;;;4819334;29;20061;-72
2022/07/23 04:39:20;;;;;;;9.20;3.42;;;;;;;;;;4866486;29;20057;-72
2022/07/23 04:41:51;;;;;;;9.60;3.63;;;;;;;;;;4852492;29;20060;-72
2022/07/23 04:44:21;;;;;;;9.10;3.72;;;;;;;;;;4848424;29;20061;-73
2022/07/23 04:46:52;;;;;;;7.85;3.30;;;;;;;;;;4892649;29;20057;-73
2022/07/23 04:49:24;;;;;;;8.77;3.28;;;;;;;;;;4911677;29;20049;-72
2022/07/23 04:51:56;;;;;;;8.35;3.22;;;;;;;;;;4892662;29;20057;-73
2022/07/23 04:54:26;;;;;;;5.25;2.80;;;;;;;;;;4861822;29;20056;-72
2022/07/23 04:56:56;;;;;;;8.32;3.60;;;;;;;;;;4871590;29;20061;-72
2022/07/23 04:59:26;;;;;;;8.88;3.28;;;;;;;;;;4892620;29;20052;-72
2022/07/23 05:02:02;;;;;;;9.13;3.00;;;;;;;;;;4874079;29;20518;-72
2022/07/23 05:04:33;;;;;;;7.22;3.63;;;;;;;;;;4874380;29;20166;-72
2022/07/23 05:07:04;;;;;;;8.07;2.83;;;;;;;;;;4887417;29;20056;-72
2022/07/23 05:09:35;;;;;;;9.20;2.90;;;;;;;;;;4899391;29;20063;-72
2022/07/23 05:12:06;;;;;;;6.78;3.15;;;;;;;;;;4947860;28;21152;-72
2022/07/23 05:14:37;;;;;;;8.20;3.00;;;;;;;;;;5011579;28;20054;-72
2022/07/23 05:17:07;;;;;;;7.18;3.78;;;;;;;;;;4991783;28;20102;-72
2022/07/23 05:19:38;;;;;;;6.85;3.22;;;;;;;;;;4980926;28;20503;-72
2022/07/23 05:22:09;;;;;;;6.55;2.88;;;;;;;;;;4961661;28;20054;-72
2022/07/23 05:24:39;;;;;;;9.00;2.72;;;;;;;;;;4910534;29;20552;-72
2022/07/23 05:27:10;;;;;;;7.78;3.17;;;;;;;;;;4895034;29;20075;-72
2022/07/23 05:29:41;;;;;;;7.93;3.20;;;;;;;;;;4895637;29;20056;-72
2022/07/23 05:32:12;;;;;;;7.30;3.00;;;;;;;;;;4886153;29;20063;-72
2022/07/23 05:34:49;;;;;;;7.75;3.13;;;;;;;;;;4914390;29;20056;-72
2022/07/23 05:37:19;;;;;;;4.93;2.53;;;;;;;;;;4914651;29;20060;-72
2022/07/23 05:39:49;;;;;;;7.05;2.83;;;;;;;;;;4923365;29;20056;-72
2022/07/23 05:42:20;;;;;;;9.02;2.95;;;;;;;;;;4923196;29;20055;-72
2022/07/23 05:44:51;;;;;;;5.65;2.58;;;;;;;;;;4904772;29;20057;-72
2022/07/23 05:47:21;;;;;;;6.82;3.13;;;;;;;;;;4895791;29;20064;-72
2022/07/23 05:49:51;;;;;;;6.88;2.83;;;;;;;;;;4895971;29;20056;-72
2022/07/23 05:52:35;;;;;;;9.18;3.10;;;;;;;;;;4921661;29;20101;-72
2022/07/23 05:55:34;;;;;;;6.88;2.90;;;;;;;;;;4918097;29;20114;-71
2022/07/23 05:58:04;;;;;;;7.00;2.67;;;;;;;;;;4899392;29;20067;-71
2022/07/23 06:00:35;;;;;;;8.45;3.50;;;;;;;;;;4895388;29;20080;-71
2022/07/23 06:03:06;;;;;;;6.38;2.75;;;;;;;;;;4880292;29;20061;-71
2022/07/23 06:05:38;;;;;;;6.93;2.63;;;;;;;;;;4869321;29;20163;-71
2022/07/23 06:08:09;;;;;;;6.07;2.85;;;;;;;;;;4877165;29;20057;-71
2022/07/23 06:10:39;;;;;;;6.85;2.50;;;;;;;;;;4906990;29;20080;-72
2022/07/23 06:13:10;;;;;;;7.25;2.90;;;;;;;;;;4880670;29;20053;-72
2022/07/23 06:15:41;;;;;;;8.32;4.00;;;;;;;;;;4907616;29;20453;-71
2022/07/23 06:18:11;;;;;;;13.63;2.92;;;;;;;;;;4890947;29;20057;-72
2022/07/23 06:20:42;;;;;;;8.02;3.00;;;;;;;;;;4880707;29;20638;-72
2022/07/23 06:23:15;;;;;;;6.60;3.25;;;;;;;;;;4877158;29;20056;-72
2022/07/23 06:25:45;;;;;;;8.25;3.08;;;;;;;;;;4895312;29;20481;-72
2022/07/23 06:28:16;;;;;;;10.73;2.50;;;;;;;;;;4876216;29;20052;-72
2022/07/23 06:30:46;;;;;;;4.85;2.58;;;;;;;;;;4857687;29;20057;-72
2022/07/23 06:33:16;;;;;;;7.20;2.67;;;;;;;;;;4892885;29;20049;-72
2022/07/23 06:35:47;;;;;;;8.05;2.80;;;;;;;;;;4889263;29;20052;-71
2022/07/23 06:38:17;;;;;;;7.68;2.75;;;;;;;;;;4882380;29;20100;-71
2022/07/23 06:40:49;;;;;;;7.70;3.05;;;;;;;;;;4922692;29;20505;-71
2022/07/23 06:43:19;;;;;;;5.43;2.83;;;;;;;;;;4913935;29;20063;-71
2022/07/23 06:45:54;;;;;;;8.02;2.65;;;;;;;;;;4913705;29;20060;-71
2022/07/23 06:48:26;;;;;;;4.95;2.47;;;;;;;;;;4932270;29;20051;-71
2022/07/23 06:50:56;;;;;;;8.63;2.90;;;;;;;;;;4921951;29;20497;-71
2022/07/23 06:53:26;;;;;;;8.25;3.83;;;;;;;;;;4916916;29;20063;-70
2022/07/23 06:55:57;;;;;;;7.15;2.40;;;;;;;;;;4951581;29;20055;-71
2022/07/23 06:58:27;;;;;;;7.78;2.95;;;;;;;;;;4951561;29;20055;-71
2022/07/23 07:00:58;;;;;;;8.68;2.90;;;;;;;;;;4946833;29;20078;-71
2022/07/23 07:03:28;;;;;;;5.65;2.92;;;;;;;;;;4894564;29;20176;-72
2022/07/23 07:05:58;;;;;;;5.78;3.33;;;;;;;;;;4882899;29;20547;-71
2022/07/23 07:08:28;;;;;;;6.72;2.67;;;;;;;;;;4951431;29;20062;-71
2022/07/23 07:10:59;;;;;;;6.88;2.50;;;;;;;;;;4951585;29;20523;-71
2022/07/23 07:13:29;;;;;;;5.80;3.58;;;;;;;;;;4925331;29;20431;-71
2022/07/23 07:16:00;;;;;;;5.97;2.97;;;;;;;;;;4932379;29;20059;-72
2022/07/23 07:18:30;;;;;;;8.27;3.10;;;;;;;;;;4962322;28;20066;-72
2022/07/23 07:21:00;;;;;;;11.75;2.80;;;;;;;;;;4989985;28;20066;-72
2022/07/23 07:23:31;;;;;;;10.20;3.30;;;;;;;;;;4950835;29;20163;-71
2022/07/23 07:26:01;;;;;;;5.88;2.45;;;;;;;;;;4960976;28;20530;-72
2022/07/23 07:28:31;;;;;;;8.18;3.75;;;;;;;;;;4968715;28;20458;-72
2022/07/23 07:31:02;;;;;;;10.18;2.55;;;;;;;;;;4990058;28;20058;-72
2022/07/23 07:33:32;;;;;;;7.45;3.50;;;;;;;;;;4989838;28;20085;-72
2022/07/23 07:36:04;;;;;;;6.20;2.72;;;;;;;;;;4989892;28;20050;-72
2022/07/23 07:38:34;;;;;;;6.53;3.22;;;;;;;;;;4957051;28;20092;-72
2022/07/23 07:41:04;;;;;;;5.78;2.67;;;;;;;;;;4989736;28;20066;-72
2022/07/23 07:43:35;;;;;;;5.20;2.83;;;;;;;;;;4989663;28;20403;-72
2022/07/23 07:46:09;;;;;;;10.13;2.80;;;;;;;;;;4969975;28;20058;-72
2022/07/23 07:48:40;;;;;;;8.95;2.97;;;;;;;;;;4969991;28;20067;-72
2022/07/23 07:51:10;;;;;;;6.15;2.78;;;;;;;;;;4970209;28;20062;-72
2022/07/23 07:53:40;;;;;;;6.45;2.83;;;;;;;;;;4938002;28;20055;-72
2022/07/23 07:56:14;;;;;;;5.90;2.90;;;;;;;;;;4970122;28;20054;-72
2022/07/23 07:58:43;;;;;;;5.88;2.67;;;;;;;;;;4937636;28;20062;-72
2022/07/23 08:01:14;;;;;;;8.43;2.80;;;;;;;;;;4980426;28;20063;-72
2022/07/23 08:03:44;;;;;;;5.95;3.00;;;;;;;;;;4961053;28;20057;-72
2022/07/23 08:06:15;;;;;;;6.38;2.80;;;;;;;;;;5041804;28;20049;-71
2022/07/23 08:08:45;;;;;;;6.00;2.78;;;;;;;;;;4989016;28;20058;-72
2022/07/23 08:11:15;;;;;;;6.43;2.83;;;;;;;;;;4989262;28;20062;-72
2022/07/23 08:13:46;;;;;;;7.70;3.60;;;;;;;;;;4989169;28;20446;-72
2022/07/23 08:16:17;;;;;;;11.38;3.35;;;;;;;;;;4989298;28;20043;-72
2022/07/23 08:18:48;;;;;;;7.03;3.35;;;;;;;;;;4989355;28;20132;-72
2022/07/23 08:21:18;;;;;;;7.55;2.60;;;;;;;;;;4989123;28;20058;-72
2022/07/23 08:23:48;;;;;;;6.03;3.05;;;;;;;;;;4999767;28;20060;-72
2022/07/23 08:26:19;;;;;;;5.10;2.50;;;;;;;;;;5008586;28;20046;-72
2022/07/23 08:28:49;;;;;;;8.07;2.78;;;;;;;;;;5008692;28;20058;-72
2022/07/23 08:31:19;;;;;;;9.32;3.03;;;;;;;;;;5008730;28;20065;-72
2022/07/23 08:33:50;;;;;;;5.55;2.60;;;;;;;;;;5008667;28;20062;-72
2022/07/23 08:36:20;;;;;;;6.18;3.20;;;;;;;;;;5008452;28;20088;-72
2022/07/23 08:38:50;;;;;;;6.40;2.53;;;;;;;;;;4961474;28;20532;-72
2022/07/23 08:41:21;;;;;;;5.70;2.78;;;;;;;;;;5012657;28;20057;-72
2022/07/23 08:43:52;;;;;;;6.95;2.75;;;;;;;;;;5012700;28;20616;-72
2022/07/23 08:46:24;;;;;;;6.13;2.60;;;;;;;;;;5053651;28;20511;-72
2022/07/23 08:48:56;;;;;;;7.35;3.08;;;;;;;;;;5035623;28;20045;-72
2022/07/23 08:51:28;;;;;;;7.07;3.10;;;;;;;;;;5031907;28;20045;-72
2022/07/23 08:53:59;;;;;;;5.97;2.60;;;;;;;;;;5032405;28;20053;-72
2022/07/23 08:56:30;;;;;;;10.68;3.58;;;;;;;;;;5032117;28;20057;-72
2022/07/23 08:59:01;;;;;;;7.72;2.88;;;;;;;;;;5032379;28;20046;-72
2022/07/23 09:01:31;;;;;;;7.75;2.80;;;;;;;;;;5008602;28;20057;-72
2022/07/23 09:04:02;;;;;;;6.13;2.70;;;;;;;;;;4992221;28;20058;-72
2022/07/23 09:06:33;;;;;;;8.35;2.80;;;;;;;;;;5011542;28;20057;-72
2022/07/23 09:09:20;;;;;;;6.90;2.60;;;;;;;;;;5012346;28;20062;-72
2022/07/23 09:12:03;;;;;;;6.28;2.80;;;;;;;;;;5011962;28;20053;-71
2022/07/23 09:14:50;;;;;;;10.50;3.10;;;;;;;;;;4996011;28;20058;-72
2022/07/23 09:17:21;;;;;;;5.88;3.10;;;;;;;;;;4979331;28;20054;-71
2022/07/23 09:19:51;;;;;;;8.60;2.67;;;;;;;;;;4975894;28;20046;-71
2022/07/23 09:22:26;;;;;;;7.30;3.42;;;;;;;;;;4972427;28;20442;-71
2022/07/23 09:25:22;;;;;;;6.18;2.92;;;;;;;;;;4952996;28;20043;-72
2022/07/23 09:28:02;;;;;;;6.82;2.83;;;;;;;;;;4972382;28;20054;-72
2022/07/23 09:30:39;;;;;;;4.65;2.50;;;;;;;;;;4972380;28;20099;-72
2022/07/23 09:33:15;;;;;;;7.57;2.63;;;;;;;;;;4940324;28;20059;-72
2022/07/23 09:35:56;;;;;;;7.13;2.97;;;;;;;;;;4940443;28;20055;-72
2022/07/23 09:38:26;;;;;;;7.80;3.28;;;;;;;;;;4968512;28;20059;-72
2022/07/23 09:41:13;;;;;;;7.43;2.90;;;;;;;;;;4932723;28;20054;-72
2022/07/23 09:43:44;;;;;;;10.18;3.42;;;;;;;;;;4977942;28;20046;-72
2022/07/23 09:46:26;;;;;;;6.20;3.10;;;;;;;;;;4991848;28;20054;-72
2022/07/23 09:48:57;;;;;;;6.05;2.88;;;;;;;;;;4991814;28;20081;-72
2022/07/23 09:51:37;;;;;;;7.03;2.80;;;;;;;;;;4990747;28;20050;-72
2022/07/23 09:54:24;;;;;;;5.85;2.67;;;;;;;;;;4943367;28;20073;-71
2022/07/23 09:56:55;;;;;;;5.18;2.47;;;;;;;;;;4982140;28;20051;-72
2022/07/23 09:59:29;;;;;;;6.72;2.83;;;;;;;;;;4957428;28;20055;-70
2022/07/23 10:02:01;;;;;;;7.80;3.15;;;;;;;;;;4976848;28;20061;-71
2022/07/23 10:04:39;;;;;;;10.63;3.97;;;;;;;;;;5030853;28;20056;-71
2022/07/23 10:07:20;;;;;;;12.85;3.88;;;;;;;;;;5030488;28;20559;-72
2022/07/23 10:10:11;;;;;;;7.30;3.03;;;;;;;;;;5031303;28;20049;-72
2022/07/23 10:15:45;;;;;;;10.73;2.85;;;;;;;;;;5010791;28;20061;-70
2022/07/23 10:18:15;;;;;;;7.50;2.83;;;;;;;;;;4991076;28;20628;-71
2022/07/23 10:20:49;;;;;;;8.75;3.17;;;;;;;;;;5000969;28;20053;-71
2022/07/23 10:23:34;;;;;;;6.50;2.90;;;;;;;;;;4981223;28;20065;-70
2022/07/23 10:26:12;;;;;;;7.80;3.05;;;;;;;;;;4997610;28;20064;-70
2022/07/23 10:29:10;;;;;;;5.32;2.70;;;;;;;;;;5030324;28;20060;-70
2022/07/23 10:31:40;;;;;;;5.82;2.97;;;;;;;;;;5010234;28;20049;-70
2022/07/23 10:35:01;;;;;;;8.65;3.58;;;;;;;;;;5010616;28;20057;-70
2022/07/23 10:37:47;;;;;;;8.27;3.38;;;;;;;;;;4954108;28;20050;-70
2022/07/23 10:40:19;;;;;;;9.63;3.17;;;;;;;;;;4971362;28;20062;-70
2022/07/23 10:42:54;;;;;;;8.48;3.10;;;;;;;;;;4971413;28;20058;-70
2022/07/23 10:45:32;;;;;;;9.60;3.50;;;;;;;;;;4971218;28;20058;-71
2022/07/23 10:48:17;;;;;;;8.35;3.75;;;;;;;;;;4971274;28;20059;-71
2022/07/23 10:51:07;;;;;;;6.43;3.25;;;;;;;;;;4957647;28;20060;-70
2022/07/23 10:53:58;;;;;;;9.70;3.17;;;;;;;;;;4919971;29;20055;-70
2022/07/23 10:57:05;;;;;;;9.82;4.35;;;;;;;;;;4904235;29;20055;-70
2022/07/23 11:00:10;;;;;;;8.13;3.58;;;;;;;;;;4951712;29;20051;-70
2022/07/23 11:02:45;;;;;;;7.82;3.78;;;;;;;;;;4951824;28;20060;-70
2022/07/23 11:05:24;;;;;;;7.93;3.67;;;;;;;;;;4935668;29;20069;-69
2022/07/23 11:08:21;;;;;;;8.68;3.20;;;;;;;;;;4913369;29;20052;-70
2022/07/23 11:11:08;;;;;;;8.48;3.92;;;;;;;;;;4951247;29;20051;-70
2022/07/23 11:13:46;;;;;;;10.35;3.72;;;;;;;;;;4976931;28;20054;-70
2022/07/23 11:16:19;;;;;;;10.23;4.15;;;;;;;;;;5027695;28;20061;-70
2022/07/23 11:18:59;;;;;;;7.90;3.47;;;;;;;;;;5029282;28;20053;-70
2022/07/23 11:21:38;;;;;;;16.73;4.28;;;;;;;;;;4989783;28;20565;-70
2022/07/23 11:24:17;;;;;;;10.45;3.58;;;;;;;;;;4989977;28;20085;-70
2022/07/23 11:26:54;;;;;;;7.25;3.83;;;;;;;;;;4989952;28;20054;-71
2022/07/23 11:29:30;;;;;;;7.30;3.33;;;;;;;;;;4989864;28;20058;-70
2022/07/23 11:32:08;;;;;;;8.23;3.45;;;;;;;;;;4989934;28;20065;-70
2022/07/23 11:34:42;;;;;;;9.00;3.47;;;;;;;;;;4989877;28;20065;-71
2022/07/23 11:37:34;;;;;;;7.55;3.63;;;;;;;;;;4989994;28;20061;-71
2022/07/23 11:40:11;;;;;;;6.60;3.80;;;;;;;;;;4970270;28;20059;-71
2022/07/23 11:43:11;;;;;;;7.82;4.60;;;;;;;;;;4970268;28;20388;-70
2022/07/23 11:45:46;;;;;;;10.93;3.88;;;;;;;;;;4872071;29;20060;-71
2022/07/23 11:48:20;;;;;;;11.15;4.95;;;;;;;;;;4875210;29;20084;-70
2022/07/23 11:50:53;;;;;;;12.85;6.57;;;;;;;;;;4875226;29;20470;-70
2022/07/23 11:53:41;;;;;;;14.95;7.20;;;;;;;;;;4875308;29;20057;-70
2022/07/23 11:56:12;;;;;;;17.63;9.27;;;;;;;;;;4844155;29;20415;-71
2022/07/23 11:58:57;;;;;;;17.40;7.20;;;;;;;;;;4841174;29;20501;-71
2022/07/23 12:01:29;;;;;;;18.10;7.72;;;;;;;;;;4912577;29;20052;-70
2022/07/23 12:04:02;;;;;;;13.95;6.95;;;;;;;;;;4896508;29;20067;-72
2022/07/23 12:06:38;;;;;;;14.98;8.02;;;;;;;;;;4865823;29;20095;-71
2022/07/23 12:09:11;;;;;;;14.95;7.45;;;;;;;;;;4893444;29;20056;-72
2022/07/23 12:12:00;;;;;;;15.38;8.30;;;;;;;;;;4893334;29;20060;-72
2022/07/23 12:14:30;;;;;;;21.25;7.97;;;;;;;;;;4892785;29;20048;-72
2022/07/23 12:17:10;;;;;;;18.23;6.78;;;;;;;;;;4886422;29;20057;-71
2022/07/23 12:19:41;;;;;;;26.25;11.55;;;;;;;;;;4874925;29;20552;-73
2022/07/23 12:22:14;;;;;;;14.63;6.43;;;;;;;;;;4914997;28;20055;-71
2022/07/23 12:24:55;;;;;;;17.17;8.77;;;;;;;;;;4977482;28;20046;-71
2022/07/23 12:27:27;;;;;;;21.30;10.30;;;;;;;;;;4983979;28;20556;-71
2022/07/23 12:29:57;;;;;;;17.25;6.60;;;;;;;;;;5032026;28;20048;-71
2022/07/23 12:32:29;;;;;;;10.45;4.53;;;;;;;;;;5048308;28;20057;-70
2022/07/23 12:35:08;;;;;;;11.38;4.80;;;;;;;;;;5048149;28;20049;-71
2022/07/23 12:37:41;;;;;;;12.40;5.80;;;;;;;;;;5031831;28;20049;-69
2022/07/23 12:40:22;;;;;;;12.13;6.30;;;;;;;;;;5048207;28;20061;-70
2022/07/23 12:43:09;;;;;;;15.63;5.70;;;;;;;;;;5028211;28;20049;-70
2022/07/23 12:46:07;;;;;;;19.80;10.10;;;;;;;;;;5029989;28;20612;-69
2022/07/23 12:48:39;;;;;;;14.60;7.90;;;;;;;;;;4930820;29;20060;-69
2022/07/23 12:51:19;;;;;;;11.40;6.05;;;;;;;;;;4929200;29;20060;-68
2022/07/23 12:53:58;;;;;;;11.95;5.18;;;;;;;;;;4912003;29;20059;-69
2022/07/23 12:56:36;;;;;;;9.77;3.35;;;;;;;;;;4911924;29;20079;-69
2022/07/23 12:59:13;;;;;;;9.15;4.10;;;;;;;;;;4912041;29;20416;-69
2022/07/23 13:01:57;;;;;;;7.65;3.33;;;;;;;;;;4911768;29;20056;-68
2022/07/23 13:04:28;;;;;;;6.93;2.88;;;;;;;;;;4911881;29;20055;-68
2022/07/23 13:07:01;;;;;;;10.13;3.08;;;;;;;;;;4911532;29;20048;-69
2022/07/23 13:09:34;;;;;;;5.10;2.70;;;;;;;;;;4912085;29;20047;-68
2022/07/23 13:12:11;;;;;;;5.45;2.53;;;;;;;;;;4911794;29;20052;-68
2022/07/23 13:14:41;;;;;;;14.45;8.63;;;;;;;;;;4895943;29;20056;-68
2022/07/23 13:17:12;;;;;;;12.48;7.07;;;;;;;;;;4892491;29;20157;-68
2022/07/23 13:19:43;;;;;;;11.70;5.63;;;;;;;;;;4902374;29;20063;-67
2022/07/23 13:22:15;;;;;;;7.30;4.90;;;;;;;;;;4949869;29;20209;-68
2022/07/23 13:24:46;;;;;;;8.48;3.17;;;;;;;;;;4927079;28;20066;-67
2022/07/23 13:27:16;;;;;;;7.85;3.15;;;;;;;;;;5049463;28;20476;-68
2022/07/23 13:29:48;;;;;;;12.02;5.72;;;;;;;;;;5051442;28;20394;-67
2022/07/23 13:32:18;;;;;;;10.35;4.45;;;;;;;;;;5001830;28;20631;-67
2022/07/23 13:34:48;;;;;;;7.38;3.33;;;;;;;;;;5051164;28;20089;-68
2022/07/23 13:37:19;;;;;;;6.43;4.55;;;;;;;;;;5051318;28;20497;-68
2022/07/23 13:39:50;;;;;;;14.27;7.53;;;;;;;;;;5034941;28;20575;-68
2022/07/23 13:42:20;;;;;;;21.45;15.98;;;;;;;;;;5050962;28;20501;-68
2022/07/23 13:44:51;;;;;;;6.05;3.03;;;;;;;;;;5051195;28;20068;-69
2022/07/23 13:47:22;;;;;;;11.13;6.50;;;;;;;;;;5050903;28;20432;-68
2022/07/23 13:49:52;;;;;;;11.57;2.65;;;;;;;;;;5051035;28;20041;-68
2022/07/23 13:52:22;;;;;;;10.10;5.35;;;;;;;;;;5050921;28;20048;-68
2022/07/23 13:54:55;;;;;;;7.40;3.22;;;;;;;;;;5063214;28;20052;-69
2022/07/23 13:57:25;;;;;;;6.32;2.55;;;;;;;;;;5073209;28;20032;-69
2022/07/23 13:59:56;;;;;;;8.40;2.28;;;;;;;;;;5073272;28;20041;-69
2022/07/23 14:02:27;;;;;;;4.70;1.95;;;;;;;;;;5073045;28;20044;-69
2022/07/23 14:04:58;;;;;;;6.38;2.45;;;;;;;;;;5042999;28;20059;-68
2022/07/23 14:07:29;;;;;;;3.70;1.83;;;;;;;;;;5062269;28;20062;-69
2022/07/23 14:09:59;;;;;;;4.97;1.95;;;;;;;;;;5061299;28;20095;-69
2022/07/23 14:12:29;;;;;;;6.72;3.60;;;;;;;;;;5113677;28;20040;-69
2022/07/23 14:15:04;;;;;;;5.50;2.65;;;;;;;;;;5113737;28;20403;-68
2022/07/23 14:17:43;;;;;;;4.03;1.83;;;;;;;;;;5113422;28;20035;-68
2022/07/23 14:20:15;;;;;;;6.00;2.05;;;;;;;;;;5095964;28;20506;-67
2022/07/23 14:22:45;;;;;;;7.32;1.92;;;;;;;;;;5078426;28;20048;-69
2022/07/23 14:25:16;;;;;;;4.55;2.08;;;;;;;;;;5095741;28;20479;-68
2022/07/23 14:27:47;;;;;;;4.40;1.95;;;;;;;;;;5069782;28;20045;-69
2022/07/23 14:30:19;;;;;;;5.70;1.83;;;;;;;;;;5070397;28;20068;-69
2022/07/23 14:32:52;;;;;;;5.28;2.30;;;;;;;;;;5070054;28;20404;-67
2022/07/23 14:35:23;;;;;;;3.90;2.22;;;;;;;;;;5070292;28;20377;-68
2022/07/23 14:37:54;;;;;;;8.20;2.30;;;;;;;;;;5053756;28;20060;-69
2022/07/23 14:40:24;;;;;;;5.18;1.77;;;;;;;;;;5070013;28;20052;-68
2022/07/23 14:42:57;;;;;;;7.65;1.90;;;;;;;;;;5029734;28;20053;-69
2022/07/23 14:45:29;;;;;;;3.53;1.45;;;;;;;;;;5030048;28;20057;-69
2022/07/23 14:48:02;;;;;;;3.50;1.33;;;;;;;;;;4990356;28;20050;-68
2022/07/23 14:50:32;;;;;;;4.07;1.65;;;;;;;;;;4942211;28;20054;-69
2022/07/23 14:53:03;;;;;;;7.35;1.92;;;;;;;;;;4990469;28;20062;-70
2022/07/23 14:55:33;;;;;;;5.03;1.80;;;;;;;;;;4958731;28;20054;-68
2022/07/23 14:58:04;;;;;;;5.47;1.90;;;;;;;;;;4957900;28;20126;-69
2022/07/23 15:00:35;;;;;;;3.10;1.33;;;;;;;;;;4990380;28;20054;-70
2022/07/23 15:03:05;;;;;;;3.95;1.50;;;;;;;;;;4990255;28;20050;-69
2022/07/23 15:05:36;;;;;;;4.07;1.38;;;;;;;;;;5012643;28;20080;-69
2022/07/23 15:08:07;;;;;;;5.47;1.60;;;;;;;;;;5013254;28;20064;-70
2022/07/23 15:10:37;;;;;;;3.72;1.50;;;;;;;;;;5029696;28;20060;-68
2022/07/23 15:13:07;;;;;;;3.70;2.03;;;;;;;;;;5029297;28;20461;-69
2022/07/23 15:15:37;;;;;;;5.35;1.55;;;;;;;;;;5029393;28;20052;-69
2022/07/23 15:18:09;;;;;;;6.22;1.65;;;;;;;;;;5029223;28;20056;-69